CDT,Max TemperatureF,Mean TemperatureF,Min TemperatureF,Max Dew PointF,MeanDew PointF,Min DewpointF,Max Humidity, Mean Humidity, Min Humidity, Max Sea Level PressureIn, Mean Sea Level PressureIn, Min Sea Level PressureIn, Max VisibilityMiles, Mean VisibilityMiles, Min VisibilityMiles, Max Wind SpeedMPH, Mean Wind SpeedMPH, Max Gust SpeedMPH,PrecipitationIn, CloudCover, Events, WindDirDegrees
2011-10-1,77,62,48,46,42,38,86,56,28,30.22,30.17,30.10,10,10,10,9,3,18,0.00,0,Rain,5
2011-10-2,75,59,43,45,41,36,89,62,25,30.30,30.23,30.18,10,10,10,10,2,17,0.00,0,,48
2011-10-3,79,60,43,45,39,29,90,57,17,30.30,30.23,30.18,10,10,10,6,1,,0.00,0,,140
2011-10-4,82,62,44,48,43,37,86,58,21,30.30,30.22,30.18,10,10,10,6,1,,0.00,0,Rain,127
2011-10-5,82,65,48,54,48,44,89,59,28,30.23,30.16,30.10,10,10,10,8,2,,0.00,0,,98
2011-10-6,86,70,54,57,53,50,90,59,31,30.18,30.13,30.09,10,10,10,10,2,17,0.00,0,,132
2011-10-7,84,70,55,59,56,53,90,64,36,30.24,30.17,30.13,10,10,9,12,3,18,0.00,0,,113
2011-10-8,87,72,57,60,57,54,90,61,32,30.22,30.16,30.10,10,10,9,12,5,22,0.00,0,,102
2011-10-9,84,72,61,58,57,55,87,59,39,30.18,30.11,30.02,10,10,10,14,7,22,0.00,0,Rain,99
2011-10-10,82,70,59,61,60,56,90,66,44,30.08,30.00,29.95,10,10,10,8,4,,0.00,1,,71
2011-10-11,84,72,61,61,59,57,93,65,42,29.97,29.90,29.84,10,10,9,10,3,,0.00,0,,93
2011-10-12,75,67,59,65,61,58,100,89,71,29.88,29.82,29.74,10,6,0,7,3,,0.00,4,Fog-Rain,145
2011-10-13,81,68,57,60,53,44,97,64,29,29.88,29.79,29.71,10,9,4,15,6,21,0.01,0,,297
2011-10-14,86,68,51,48,42,34,83,46,16,29.99,29.94,29.89,10,10,10,7,3,,0.00,0,Rain,248
2011-10-15,82,68,55,47,43,37,69,42,24,30.14,30.07,29.99,10,10,10,13,6,17,0.00,0,,44
2011-10-16,90,75,60,54,48,41,67,43,19,30.10,30.03,29.95,10,10,10,15,7,21,0.00,0,,206
2011-10-17,88,74,60,60,56,52,83,52,30,29.96,29.87,29.72,10,10,10,13,7,20,0.00,0,,217
2011-10-18,72,60,46,61,53,44,96,88,59,29.91,29.79,29.71,10,6,2,10,5,24,0.67,7,Rain-Thunderstorm,355
2011-10-19,59,50,41,45,37,32,93,65,39,30.01,29.91,29.85,10,10,10,14,6,24,0.00,2,,306
2011-10-20,64,50,35,37,33,24,89,64,24,30.13,30.06,30.01,10,10,10,9,3,16,0.00,0,,281
2011-10-21,73,54,37,43,36,31,89,58,25,30.27,30.19,30.14,10,10,9,5,0,,0.00,0,,79
2011-10-22,75,60,48,52,45,39,77,56,36,30.19,30.12,30.04,10,10,9,8,3,,0.00,4,,167
2011-10-23,72,62,53,59,54,45,100,83,59,30.13,30.03,29.96,10,7,2,12,5,21,0.24,5,Rain-Thunderstorm,67
2011-10-24,77,63,51,54,52,48,100,85,38,30.26,30.18,30.13,10,4,0,4,0,,0.00,3,Fog,65
2011-10-25,84,68,54,53,45,37,75,48,19,30.21,30.11,30.01,10,10,10,10,5,17,0.00,0,,178
2011-10-26,82,70,59,62,58,51,83,63,45,30.02,29.94,29.86,10,10,10,12,8,18,0.00,1,,200
2011-10-27,69,60,50,60,52,47,96,84,68,30.02,29.97,29.85,10,7,2,15,6,25,0.44,7,Rain,42
2011-10-28,59,50,39,49,43,37,96,80,46,30.22,30.10,29.99,10,8,2,20,6,29,0.71,6,Rain,27
2011-10-29,68,52,36,41,36,29,100,74,24,30.27,30.21,30.15,10,6,2,9,3,,0.00,0,,300
2011-10-30,66,50,35,41,35,31,86,58,28,30.25,30.19,30.14,10,10,9,8,1,17,0.00,0,,195
2011-10-31,73,58,44,41,35,29,76,45,20,30.22,30.19,30.16,10,10,10,7,4,,0.00,0,,200